createdAt,value
2017-10-25T00:00:09.726Z,13.70
2017-10-25T00:05:13.698Z,13.70
2017-10-25T00:10:16.897Z,13.60
2017-10-25T00:15:20.070Z,13.70
2017-10-25T00:20:23.281Z,13.70
2017-10-25T00:25:26.514Z,13.70
2017-10-25T00:30:29.727Z,13.70
2017-10-25T00:35:32.935Z,13.70
2017-10-25T00:40:36.128Z,13.70
2017-10-25T00:45:39.324Z,13.70
2017-10-25T00:50:42.572Z,13.70
2017-10-25T00:55:45.756Z,13.70
2017-10-25T01:00:48.966Z,13.80
2017-10-25T01:05:52.149Z,13.80
2017-10-25T01:10:55.334Z,13.80
2017-10-25T01:15:59.314Z,13.90
2017-10-25T01:21:02.502Z,13.80
2017-10-25T01:26:05.694Z,13.90
2017-10-25T01:31:08.871Z,13.90
2017-10-25T01:36:12.865Z,13.90
2017-10-25T01:41:16.045Z,13.90
2017-10-25T01:46:19.375Z,14.00
2017-10-25T01:51:22.567Z,14.00
2017-10-25T01:56:25.738Z,14.00
2017-10-25T02:01:29.670Z,14.00
2017-10-25T02:06:32.858Z,13.90
2017-10-25T02:11:36.794Z,13.80
2017-10-25T02:16:40.106Z,13.80
2017-10-25T02:21:43.465Z,13.90
2017-10-25T02:26:46.817Z,13.90
2017-10-25T02:31:50.869Z,13.80
2017-10-25T02:36:54.075Z,13.80
2017-10-25T02:41:57.285Z,13.80
2017-10-25T02:47:00.482Z,13.90
2017-10-25T02:52:03.691Z,13.90
2017-10-25T02:57:06.960Z,13.90
2017-10-25T03:02:10.184Z,13.90
2017-10-25T03:07:13.396Z,13.80
2017-10-25T03:12:17.357Z,13.90
2017-10-25T03:17:20.535Z,13.90
2017-10-25T03:22:23.763Z,13.90
2017-10-25T03:27:26.995Z,13.90
2017-10-25T03:32:30.269Z,13.90
2017-10-25T03:37:33.665Z,13.80
2017-10-25T03:42:37.644Z,13.80
2017-10-25T03:47:40.839Z,13.80
2017-10-25T03:52:44.189Z,13.80
2017-10-25T03:57:48.152Z,13.80
2017-10-25T04:02:51.332Z,13.80
2017-10-25T04:07:54.556Z,13.80
2017-10-25T04:12:57.759Z,13.80
2017-10-25T04:18:00.903Z,13.80
2017-10-25T04:23:04.113Z,13.80
2017-10-25T04:28:07.539Z,13.70
2017-10-25T04:33:10.769Z,13.70
2017-10-25T04:38:14.769Z,13.70
2017-10-25T04:43:17.957Z,13.70
2017-10-25T04:48:21.146Z,13.70
2017-10-25T04:53:24.369Z,13.80
2017-10-25T04:58:27.573Z,13.90
2017-10-25T05:03:30.793Z,13.90
2017-10-25T05:08:34.032Z,13.80
2017-10-25T05:13:37.982Z,14.00
2017-10-25T05:18:41.310Z,14.00
2017-10-25T05:23:44.950Z,13.90
2017-10-25T05:28:48.252Z,14.00
2017-10-25T05:33:51.433Z,13.90
2017-10-25T05:38:54.602Z,13.90
2017-10-25T05:43:58.550Z,13.80
2017-10-25T05:49:01.737Z,13.80
2017-10-25T05:54:05.800Z,13.80
2017-10-25T05:59:09.058Z,13.80
2017-10-25T06:04:12.261Z,13.80
2017-10-25T06:09:16.397Z,13.80
2017-10-25T06:14:20.355Z,13.80
2017-10-25T06:19:23.558Z,13.80
2017-10-25T06:24:26.759Z,13.80
2017-10-25T06:29:30.070Z,13.90
2017-10-25T06:34:33.285Z,13.80
2017-10-25T06:39:36.473Z,13.90
2017-10-25T06:44:39.650Z,14.00
2017-10-25T06:49:42.823Z,14.10
2017-10-25T06:54:46.005Z,14.20
2017-10-25T06:59:49.189Z,14.00
2017-10-25T07:04:53.137Z,14.00
2017-10-25T07:09:56.986Z,14.00
2017-10-25T07:15:00.190Z,14.00
2017-10-25T07:20:03.497Z,14.00
2017-10-25T07:25:06.701Z,14.10
2017-10-25T07:30:10.086Z,14.20
2017-10-25T07:35:13.276Z,14.30
2017-10-25T07:40:17.214Z,14.20
2017-10-25T07:45:20.425Z,14.20
2017-10-25T07:50:23.670Z,14.20
2017-10-25T07:55:26.902Z,14.30
2017-10-25T08:00:30.935Z,14.50
2017-10-25T08:05:34.907Z,14.40
2017-10-25T08:10:38.112Z,14.40
2017-10-25T08:15:41.319Z,14.40
2017-10-25T08:20:44.534Z,14.40
2017-10-25T08:25:47.718Z,14.50
2017-10-25T08:30:50.924Z,14.40
2017-10-25T08:35:54.100Z,14.40
2017-10-25T08:40:58.065Z,14.80
2017-10-25T08:46:01.377Z,14.80
2017-10-25T08:51:04.577Z,14.80
2017-10-25T08:56:07.742Z,14.80
2017-10-25T09:01:11.709Z,15.10
2017-10-25T09:06:14.899Z,15.10
2017-10-25T09:11:18.249Z,15.30
2017-10-25T09:16:21.439Z,15.50
2017-10-25T09:21:24.651Z,15.70
2017-10-25T09:26:27.940Z,15.70
2017-10-25T09:31:32.120Z,15.80
2017-10-25T09:36:35.467Z,16.00
2017-10-25T09:41:38.669Z,16.00
2017-10-25T09:46:41.910Z,16.10
2017-10-25T09:51:45.086Z,16.60
2017-10-25T09:56:48.274Z,16.70
2017-10-25T10:01:51.566Z,16.90
2017-10-25T10:06:54.774Z,17.10
2017-10-25T10:11:58.015Z,17.30
2017-10-25T10:17:01.962Z,17.80
2017-10-25T10:22:05.141Z,17.80
2017-10-25T10:27:08.320Z,17.60
2017-10-25T10:32:11.714Z,17.70
2017-10-25T10:37:14.843Z,17.50
2017-10-25T10:42:18.803Z,17.70
2017-10-25T10:47:22.256Z,17.70
2017-10-25T10:52:25.451Z,18.00
2017-10-25T10:57:28.654Z,18.10
2017-10-25T11:02:32.199Z,18.20
2017-10-25T11:07:35.380Z,18.30
2017-10-25T11:12:38.556Z,18.40
2017-10-25T11:17:48.781Z,18.40
2017-10-25T11:22:51.970Z,19.10
2017-10-25T11:27:56.882Z,18.90
2017-10-25T11:33:00.866Z,19.10
2017-10-25T11:38:04.899Z,18.70
2017-10-25T11:43:08.849Z,19.10
2017-10-25T11:48:12.041Z,19.10
2017-10-25T11:53:15.327Z,19.00
2017-10-25T11:58:18.688Z,19.00
2017-10-25T12:03:21.862Z,19.30
2017-10-25T12:08:25.814Z,19.60
2017-10-25T12:13:29.053Z,19.50
2017-10-25T12:18:32.451Z,19.50
2017-10-25T12:23:35.676Z,19.70
2017-10-25T12:28:38.890Z,19.90
2017-10-25T12:33:42.059Z,20.20
2017-10-25T12:38:45.244Z,20.40
2017-10-25T12:43:48.469Z,20.20
2017-10-25T12:48:51.667Z,20.30
2017-10-25T12:53:54.863Z,20.40
2017-10-25T12:58:58.185Z,20.40
2017-10-25T13:04:01.415Z,20.00
2017-10-25T13:09:04.659Z,19.90
2017-10-25T13:14:22.379Z,19.80
2017-10-25T13:19:25.618Z,19.80
2017-10-25T13:24:28.822Z,19.80
2017-10-25T13:29:32.027Z,19.90
2017-10-25T13:34:35.294Z,19.90
2017-10-25T13:39:38.486Z,19.90
2017-10-25T13:44:41.680Z,19.80
2017-10-25T13:49:45.086Z,19.60
2017-10-25T13:54:48.316Z,19.70
2017-10-25T13:59:51.539Z,19.60
2017-10-25T14:04:54.749Z,19.70
2017-10-25T14:09:57.920Z,19.70
2017-10-25T14:15:01.110Z,19.60
2017-10-25T14:20:04.311Z,19.40
2017-10-25T14:25:08.286Z,19.30
2017-10-25T14:30:11.460Z,19.30
2017-10-25T14:35:14.679Z,18.90
2017-10-25T14:40:17.869Z,19.00
2017-10-25T14:45:21.103Z,18.90
2017-10-25T14:50:24.320Z,18.90
2017-10-25T14:55:27.476Z,18.90
2017-10-25T15:00:30.685Z,18.90
2017-10-25T15:05:34.651Z,18.80
2017-10-25T15:10:37.996Z,18.80
2017-10-25T15:15:41.281Z,18.60
2017-10-25T15:20:44.512Z,18.30
2017-10-25T15:25:47.794Z,18.20
2017-10-25T15:30:51.188Z,18.00
2017-10-25T15:35:54.432Z,17.70
2017-10-25T15:40:57.686Z,17.80
2017-10-25T15:46:00.899Z,17.60
2017-10-25T15:51:04.114Z,17.50
2017-10-25T15:56:07.286Z,17.40
2017-10-25T16:01:11.381Z,17.00
2017-10-25T16:06:14.633Z,17.00
2017-10-25T16:11:18.665Z,16.50
2017-10-25T16:16:21.984Z,16.50
2017-10-25T16:21:25.192Z,16.50
2017-10-25T16:26:28.465Z,16.60
2017-10-25T16:31:32.347Z,16.20
2017-10-25T16:36:35.508Z,16.20
2017-10-25T16:41:38.849Z,16.10
2017-10-25T16:46:42.134Z,16.00
2017-10-25T16:51:45.301Z,15.80
2017-10-25T16:56:49.275Z,15.70
2017-10-25T17:01:52.445Z,15.60
2017-10-25T17:06:55.690Z,15.60
2017-10-25T17:11:58.889Z,15.40
2017-10-25T17:17:02.097Z,15.30
2017-10-25T17:22:05.234Z,15.20
2017-10-25T17:27:08.752Z,15.10
2017-10-25T17:32:12.000Z,14.80
2017-10-25T17:37:16.026Z,14.40
2017-10-25T17:42:19.935Z,14.30
2017-10-25T17:47:23.863Z,14.20
2017-10-25T17:52:27.923Z,14.00
2017-10-25T17:57:31.165Z,13.90
2017-10-25T18:02:34.545Z,13.80
2017-10-25T18:07:37.774Z,13.70
2017-10-25T18:12:40.951Z,13.60
2017-10-25T18:17:44.187Z,13.50
2017-10-25T18:22:47.401Z,13.40
2017-10-25T18:27:50.614Z,13.30
2017-10-25T18:32:53.867Z,13.30
2017-10-25T18:37:57.148Z,13.20
2017-10-25T18:43:00.401Z,13.20
2017-10-25T18:48:04.072Z,13.20
2017-10-25T18:53:07.283Z,13.20
2017-10-25T18:58:11.325Z,13.10
2017-10-25T19:03:14.700Z,13.10
2017-10-25T19:08:17.897Z,12.90
2017-10-25T19:13:21.139Z,12.90
2017-10-25T19:18:25.155Z,13.30
2017-10-25T19:23:28.384Z,13.20
2017-10-25T19:28:32.338Z,13.30
2017-10-25T19:33:35.605Z,13.20
2017-10-25T19:38:39.591Z,13.10
2017-10-25T19:43:42.780Z,13.00
2017-10-25T19:48:46.121Z,12.80
2017-10-25T19:53:49.324Z,12.70
2017-10-25T19:58:52.612Z,12.70
2017-10-25T20:03:55.830Z,12.60
2017-10-25T20:08:59.072Z,12.50
2017-10-25T20:14:02.272Z,12.40
2017-10-25T20:19:06.473Z,12.40
2017-10-25T20:24:09.780Z,12.40
2017-10-25T20:29:13.116Z,12.20
2017-10-25T20:34:16.398Z,11.90
2017-10-25T20:39:19.634Z,11.80
2017-10-25T20:44:23.017Z,11.80
2017-10-25T20:49:26.254Z,12.00
2017-10-25T20:54:29.466Z,12.10
2017-10-25T20:59:32.882Z,12.10
2017-10-25T21:04:36.959Z,12.30
2017-10-25T21:09:40.161Z,12.30
2017-10-25T21:14:43.364Z,12.40
2017-10-25T21:19:46.656Z,12.40
2017-10-25T21:24:49.871Z,12.30
2017-10-25T21:29:53.098Z,12.40
2017-10-25T21:34:56.345Z,12.20
2017-10-25T21:40:00.426Z,12.20
2017-10-25T21:45:03.652Z,12.20
2017-10-25T21:50:06.861Z,11.80
2017-10-25T21:55:10.146Z,11.80
2017-10-25T22:00:13.356Z,11.50
2017-10-25T22:05:16.534Z,11.50
2017-10-25T22:10:19.772Z,11.40
2017-10-25T22:15:22.962Z,11.20
2017-10-25T22:20:26.156Z,11.10
2017-10-25T22:25:29.366Z,11.10
2017-10-25T22:30:32.585Z,11.10
2017-10-25T22:35:35.776Z,11.10
2017-10-25T22:40:39.123Z,11.00
2017-10-25T22:45:42.325Z,10.80
2017-10-25T22:50:45.537Z,10.80
2017-10-25T22:55:48.830Z,10.80
2017-10-25T23:00:52.011Z,10.70
2017-10-25T23:05:55.202Z,10.50
2017-10-25T23:10:59.214Z,10.20
2017-10-25T23:16:03.158Z,10.20
2017-10-25T23:21:06.593Z,10.10
2017-10-25T23:26:09.780Z,10.10
2017-10-25T23:31:13.037Z,10.10
2017-10-25T23:36:16.251Z,10.00
2017-10-25T23:41:19.450Z,9.90
2017-10-25T23:46:22.653Z,9.80
2017-10-25T23:51:25.877Z,9.90
2017-10-25T23:56:29.219Z,9.90
